Time;durP1;ratioP1;P1;durP2;ratioP2;P2;SDS_P1;SDS_P2;PMS_P1;PMS_P2;Temp;Humidity;BMP_temperature;BMP_pressure;BME280_temperature;BME280_humidity;BME280_pressure;Samples;Min_cycle;Max_cycle;Signal;HPM_P1;HPM_P2
2021/01/04 00:02:01;;;;;;;91.30;45.53;;;;;;;;;;5088784;28;20190;-83
2021/01/04 00:04:35;;;;;;;101.50;48.33;;;;;;;;;;5081180;28;20231;-82
2021/01/04 00:07:01;;;;;;;88.93;43.47;;;;;;;;;;5068620;28;20243;-82
2021/01/04 00:09:28;;;;;;;94.10;46.80;;;;;;;;;;5069002;28;20199;-82
2021/01/04 00:12:12;;;;;;;82.07;42.67;;;;;;;;;;5068562;28;20202;-82
2021/01/04 00:14:42;;;;;;;90.67;41.97;;;;;;;;;;5068661;28;20233;-83
2021/01/04 00:17:26;;;;;;;84.57;40.90;;;;;;;;;;5056883;28;20168;-82
2021/01/04 00:19:59;;;;;;;81.80;40.53;;;;;;;;;;5055316;28;20603;-82
2021/01/04 00:22:25;;;;;;;94.77;47.23;;;;;;;;;;5055309;28;20672;-82
2021/01/04 00:24:53;;;;;;;102.80;47.97;;;;;;;;;;5055172;28;20199;-82
2021/01/04 00:27:33;;;;;;;105.13;50.17;;;;;;;;;;5071212;28;20186;-82
2021/01/04 00:30:00;;;;;;;106.40;51.00;;;;;;;;;;5075407;28;20177;-82
2021/01/04 00:32:33;;;;;;;113.90;52.77;;;;;;;;;;5075357;28;20535;-82
2021/01/04 00:35:00;;;;;;;139.07;63.43;;;;;;;;;;5075654;28;20253;-82
2021/01/04 00:37:41;;;;;;;117.43;54.70;;;;;;;;;;5075015;28;20657;-82
2021/01/04 00:40:25;;;;;;;98.63;45.33;;;;;;;;;;5075564;28;20245;-82
2021/01/04 00:42:51;;;;;;;88.00;43.07;;;;;;;;;;5055216;28;20242;-81
2021/01/04 00:45:24;;;;;;;85.47;42.27;;;;;;;;;;5055078;28;20195;-83
2021/01/04 00:47:50;;;;;;;90.33;44.83;;;;;;;;;;5054879;28;20839;-82
2021/01/04 00:50:34;;;;;;;81.97;43.07;;;;;;;;;;5055073;28;20199;-82
2021/01/04 00:53:02;;;;;;;86.13;43.20;;;;;;;;;;5054667;28;20217;-82
2021/01/04 00:55:40;;;;;;;89.03;44.17;;;;;;;;;;5054685;28;20172;-82
2021/01/04 00:58:24;;;;;;;87.20;43.33;;;;;;;;;;5053508;28;20633;-82
2021/01/04 01:01:12;;;;;;;87.40;43.07;;;;;;;;;;5054447;28;20178;-82
2021/01/04 01:03:46;;;;;;;84.73;41.07;;;;;;;;;;5046658;28;20183;-82
2021/01/04 01:06:25;;;;;;;88.33;43.83;;;;;;;;;;5074555;28;20163;-81
2021/01/04 01:08:54;;;;;;;103.80;52.17;;;;;;;;;;5074313;28;20253;-82
2021/01/04 01:11:22;;;;;;;114.20;54.23;;;;;;;;;;5074478;28;20199;-82
2021/01/04 01:13:54;;;;;;;127.87;58.33;;;;;;;;;;5074266;28;20213;-82
2021/01/04 01:16:19;;;;;;;121.83;55.63;;;;;;;;;;5074474;28;20203;-82
2021/01/04 01:18:44;;;;;;;95.43;44.73;;;;;;;;;;5074182;28;20190;-82
2021/01/04 01:21:10;;;;;;;105.73;49.63;;;;;;;;;;5074287;28;20538;-82
2021/01/04 01:23:37;;;;;;;158.87;72.50;;;;;;;;;;5074587;28;20515;-82
2021/01/04 01:26:15;;;;;;;126.50;59.27;;;;;;;;;;5079740;28;20575;-82
2021/01/04 01:28:50;;;;;;;101.80;49.77;;;;;;;;;;5093507;28;20174;-82
2021/01/04 01:31:21;;;;;;;125.93;56.80;;;;;;;;;;5094473;28;20679;-82
2021/01/04 01:34:04;;;;;;;121.50;57.30;;;;;;;;;;5094107;28;20618;-82
2021/01/04 01:36:48;;;;;;;113.03;53.03;;;;;;;;;;5094091;28;20177;-82
2021/01/04 01:39:14;;;;;;;103.70;49.20;;;;;;;;;;5094522;28;20604;-82
2021/01/04 01:41:54;;;;;;;98.70;48.57;;;;;;;;;;5094006;28;20202;-81
2021/01/04 01:44:41;;;;;;;91.63;43.03;;;;;;;;;;5093905;28;20190;-82
2021/01/04 01:47:09;;;;;;;95.13;46.17;;;;;;;;;;5094087;28;20170;-82
2021/01/04 01:49:52;;;;;;;76.23;39.37;;;;;;;;;;5093631;28;20182;-82
2021/01/04 01:52:40;;;;;;;85.20;40.53;;;;;;;;;;5093957;28;20194;-82
2021/01/04 01:55:08;;;;;;;77.60;38.93;;;;;;;;;;5094104;28;20179;-82
2021/01/04 01:57:46;;;;;;;76.50;38.40;;;;;;;;;;5075721;28;20629;-82
2021/01/04 02:00:18;;;;;;;75.07;37.40;;;;;;;;;;5094123;28;20150;-82
2021/01/04 02:02:49;;;;;;;73.10;36.97;;;;;;;;;;5093538;28;20250;-82
2021/01/04 02:05:18;;;;;;;70.00;35.03;;;;;;;;;;5093629;28;20234;-83
2021/01/04 02:07:58;;;;;;;68.77;35.13;;;;;;;;;;5093338;28;20173;-82
2021/01/04 02:10:35;;;;;;;62.17;32.77;;;;;;;;;;5093654;28;20166;-82
2021/01/04 02:13:06;;;;;;;69.60;34.23;;;;;;;;;;5093248;28;20194;-82
2021/01/04 02:15:42;;;;;;;68.03;34.70;;;;;;;;;;5093366;28;20171;-82
2021/01/04 02:18:11;;;;;;;69.63;34.70;;;;;;;;;;5093450;28;20162;-82
2021/01/04 02:20:52;;;;;;;69.37;34.90;;;;;;;;;;5093244;28;20540;-82
2021/01/04 02:23:36;;;;;;;72.47;35.17;;;;;;;;;;5093148;28;20166;-82
2021/01/04 02:26:07;;;;;;;75.03;36.33;;;;;;;;;;5087744;28;20674;-81
2021/01/04 02:28:33;;;;;;;73.03;38.30;;;;;;;;;;5073411;28;20225;-82
2021/01/04 02:30:58;;;;;;;82.10;41.23;;;;;;;;;;5071910;28;20214;-83
2021/01/04 02:33:24;;;;;;;76.13;38.77;;;;;;;;;;5072849;28;20212;-83
2021/01/04 02:35:49;;;;;;;78.90;39.27;;;;;;;;;;5072800;28;20209;-82
2021/01/04 02:38:21;;;;;;;89.43;40.33;;;;;;;;;;5073330;28;20172;-82
2021/01/04 02:40:46;;;;;;;76.67;38.80;;;;;;;;;;5075652;28;20178;-83
2021/01/04 02:43:12;;;;;;;74.23;37.83;;;;;;;;;;5093036;28;20179;-82
2021/01/04 02:45:37;;;;;;;75.83;39.20;;;;;;;;;;5093019;28;20198;-83
2021/01/04 02:48:02;;;;;;;80.50;38.80;;;;;;;;;;5093174;28;20551;-83
2021/01/04 02:50:33;;;;;;;77.10;39.77;;;;;;;;;;5093161;28;20240;-82
2021/01/04 02:53:14;;;;;;;77.30;39.23;;;;;;;;;;5092921;28;20167;-82
2021/01/04 02:55:58;;;;;;;70.07;37.67;;;;;;;;;;5093048;28;20180;-82
2021/01/04 02:58:42;;;;;;;71.17;38.70;;;;;;;;;;5092998;28;20188;-83
2021/01/04 03:01:10;;;;;;;75.60;39.27;;;;;;;;;;5092698;28;20524;-82
2021/01/04 03:03:36;;;;;;;68.03;36.67;;;;;;;;;;5092697;28;20175;-82
2021/01/04 03:06:03;;;;;;;83.27;42.83;;;;;;;;;;5092593;28;20695;-82
2021/01/04 03:08:28;;;;;;;97.77;48.77;;;;;;;;;;5092627;28;20186;-82
2021/01/04 03:10:53;;;;;;;91.03;47.90;;;;;;;;;;5092512;28;20167;-82
2021/01/04 03:13:25;;;;;;;99.67;48.57;;;;;;;;;;5092877;28;20188;-82
2021/01/04 03:16:16;;;;;;;93.77;48.83;;;;;;;;;;5092879;28;20265;-82
2021/01/04 03:18:54;;;;;;;92.13;48.13;;;;;;;;;;5088656;28;20545;-82
2021/01/04 03:21:22;;;;;;;92.93;47.33;;;;;;;;;;5092460;28;20177;-82
2021/01/04 03:23:48;;;;;;;92.53;48.53;;;;;;;;;;5092626;28;20166;-82
2021/01/04 03:26:21;;;;;;;81.37;45.43;;;;;;;;;;5085415;28;20182;-82
2021/01/04 03:28:47;;;;;;;82.07;43.73;;;;;;;;;;5072431;28;20229;-82
2021/01/04 03:31:13;;;;;;;84.63;43.93;;;;;;;;;;5072526;28;20167;-82
2021/01/04 03:33:39;;;;;;;81.93;43.87;;;;;;;;;;5072553;28;20167;-82
2021/01/04 03:36:04;;;;;;;77.03;42.13;;;;;;;;;;5072293;28;20193;-82
2021/01/04 03:38:32;;;;;;;74.47;39.47;;;;;;;;;;5072501;28;20182;-83
2021/01/04 03:40:58;;;;;;;76.63;38.87;;;;;;;;;;5072671;28;20210;-82
2021/01/04 03:43:23;;;;;;;70.33;38.97;;;;;;;;;;5072046;28;20199;-83
2021/01/04 03:45:48;;;;;;;70.67;39.00;;;;;;;;;;5072087;28;20665;-82
2021/01/04 03:48:14;;;;;;;64.57;35.80;;;;;;;;;;5072254;28;20167;-82
2021/01/04 03:50:39;;;;;;;67.83;37.97;;;;;;;;;;5072813;28;20187;-82
2021/01/04 03:53:05;;;;;;;66.33;35.60;;;;;;;;;;5076047;28;20186;-83
2021/01/04 03:55:30;;;;;;;63.00;36.37;;;;;;;;;;5075786;28;20175;-83
2021/01/04 03:57:55;;;;;;;62.00;34.53;;;;;;;;;;5075894;28;20249;-82
2021/01/04 04:00:21;;;;;;;59.53;35.40;;;;;;;;;;5075734;28;20254;-82
2021/01/04 04:02:47;;;;;;;62.93;33.80;;;;;;;;;;5075884;28;20199;-82
2021/01/04 04:05:13;;;;;;;62.60;35.97;;;;;;;;;;5075270;28;20642;-82
2021/01/04 04:07:40;;;;;;;61.87;35.73;;;;;;;;;;5075808;28;20194;-83
2021/01/04 04:10:05;;;;;;;61.20;35.77;;;;;;;;;;5075799;28;20201;-83
2021/01/04 04:12:31;;;;;;;64.80;36.80;;;;;;;;;;5075447;28;20191;-83
2021/01/04 04:14:56;;;;;;;88.63;46.90;;;;;;;;;;5075652;28;20167;-82
2021/01/04 04:17:21;;;;;;;116.03;54.70;;;;;;;;;;5075569;28;20171;-82
2021/01/04 04:19:47;;;;;;;117.23;54.83;;;;;;;;;;5075753;28;20175;-82
2021/01/04 04:22:13;;;;;;;88.73;47.07;;;;;;;;;;5075983;28;20677;-82
2021/01/04 04:24:39;;;;;;;75.20;40.73;;;;;;;;;;5075866;28;20199;-83
2021/01/04 04:27:04;;;;;;;70.90;37.23;;;;;;;;;;5076322;28;20741;-82
2021/01/04 04:29:30;;;;;;;68.43;37.43;;;;;;;;;;5076641;28;20175;-82
2021/01/04 04:31:55;;;;;;;60.20;34.23;;;;;;;;;;5076103;28;20610;-82
2021/01/04 04:34:20;;;;;;;56.73;35.07;;;;;;;;;;5076058;28;20264;-82
2021/01/04 04:36:46;;;;;;;60.93;35.33;;;;;;;;;;5076152;28;20175;-82
2021/01/04 04:39:12;;;;;;;60.97;35.57;;;;;;;;;;5075830;28;20273;-82
2021/01/04 04:41:42;;;;;;;103.43;60.50;;;;;;;;;;5076276;28;20207;-82
2021/01/04 04:44:14;;;;;;;74.40;43.10;;;;;;;;;;5076153;28;20206;-82
2021/01/04 04:46:49;;;;;;;71.20;41.50;;;;;;;;;;5076400;28;20217;-82
2021/01/04 04:49:32;;;;;;;76.63;47.67;;;;;;;;;;5076530;28;20585;-82
2021/01/04 04:52:01;;;;;;;84.10;50.07;;;;;;;;;;5076266;28;20512;-82
2021/01/04 04:54:29;;;;;;;76.10;46.10;;;;;;;;;;5075908;28;20174;-81
2021/01/04 04:56:57;;;;;;;58.23;37.60;;;;;;;;;;5076164;28;20172;-81
2021/01/04 04:59:36;;;;;;;52.87;32.97;;;;;;;;;;5076417;28;20622;-81
2021/01/04 05:02:13;;;;;;;50.17;30.43;;;;;;;;;;5076364;28;20204;-82
2021/01/04 05:04:47;;;;;;;56.83;33.60;;;;;;;;;;5075588;28;20233;-82
2021/01/04 05:07:27;;;;;;;48.37;31.13;;;;;;;;;;5076360;28;20172;-82
2021/01/04 05:10:06;;;;;;;52.77;32.13;;;;;;;;;;5075405;28;20167;-82
2021/01/04 05:12:35;;;;;;;56.10;33.03;;;;;;;;;;5075910;28;20601;-82
2021/01/04 05:15:04;;;;;;;52.30;32.27;;;;;;;;;;5075582;28;20587;-82
2021/01/04 05:17:35;;;;;;;66.37;37.97;;;;;;;;;;5075458;28;20615;-82
2021/01/04 05:20:33;;;;;;;90.53;48.43;;;;;;;;;;5076018;28;20610;-82
2021/01/04 05:23:16;;;;;;;57.73;33.63;;;;;;;;;;5030816;28;20610;-82
2021/01/04 05:25:42;;;;;;;57.87;34.77;;;;;;;;;;5075242;28;20594;-82
2021/01/04 05:28:07;;;;;;;63.40;37.50;;;;;;;;;;5075257;28;20179;-82
2021/01/04 05:30:36;;;;;;;69.67;39.33;;;;;;;;;;5075229;28;20167;-82
2021/01/04 05:33:05;;;;;;;50.43;31.33;;;;;;;;;;5074957;28;20668;-82
2021/01/04 05:35:32;;;;;;;48.00;28.33;;;;;;;;;;5075454;28;20171;-82
2021/01/04 05:37:57;;;;;;;49.77;30.03;;;;;;;;;;5075058;28;20233;-82
2021/01/04 05:40:41;;;;;;;52.30;31.57;;;;;;;;;;5074763;28;20175;-82
2021/01/04 05:43:25;;;;;;;46.40;29.40;;;;;;;;;;5074160;28;20503;-81
2021/01/04 05:46:07;;;;;;;51.80;32.50;;;;;;;;;;5074855;28;20285;-81
2021/01/04 05:48:38;;;;;;;61.00;37.87;;;;;;;;;;5075172;28;20606;-82
2021/01/04 05:51:08;;;;;;;57.57;36.07;;;;;;;;;;5074851;28;20236;-82
2021/01/04 05:53:33;;;;;;;50.83;30.87;;;;;;;;;;5074811;28;20163;-82
2021/01/04 05:56:00;;;;;;;49.20;30.77;;;;;;;;;;5074472;28;20183;-82
2021/01/04 05:58:28;;;;;;;51.93;31.90;;;;;;;;;;5074392;28;20171;-82
2021/01/04 06:00:53;;;;;;;57.60;33.70;;;;;;;;;;5075117;28;20175;-82
2021/01/04 06:03:21;;;;;;;52.93;31.83;;;;;;;;;;5074922;28;20497;-82
2021/01/04 06:05:48;;;;;;;51.97;32.83;;;;;;;;;;5074839;28;20223;-82
2021/01/04 06:08:24;;;;;;;59.13;35.87;;;;;;;;;;5074534;28;20210;-82
2021/01/04 06:10:49;;;;;;;65.53;38.67;;;;;;;;;;5074700;28;20181;-82
2021/01/04 06:13:17;;;;;;;72.97;42.87;;;;;;;;;;5073749;28;20282;-82
2021/01/04 06:15:42;;;;;;;108.70;59.80;;;;;;;;;;5074186;28;20186;-82
2021/01/04 06:18:28;;;;;;;82.13;48.43;;;;;;;;;;5074602;28;20258;-82
2021/01/04 06:20:53;;;;;;;78.90;46.00;;;;;;;;;;5073770;28;20183;-82
2021/01/04 06:23:25;;;;;;;78.77;44.47;;;;;;;;;;5074015;28;20228;-82
2021/01/04 06:25:58;;;;;;;90.03;50.77;;;;;;;;;;5073916;28;20198;-82
2021/01/04 06:28:24;;;;;;;109.30;61.93;;;;;;;;;;5073834;28;20167;-83
2021/01/04 06:31:02;;;;;;;112.70;61.93;;;;;;;;;;5074439;28;20167;-82
2021/01/04 06:33:29;;;;;;;140.87;74.67;;;;;;;;;;5074359;28;20633;-82
2021/01/04 06:36:05;;;;;;;216.20;93.80;;;;;;;;;;5073808;28;20177;-83
2021/01/04 06:38:31;;;;;;;96.00;54.87;;;;;;;;;;5074364;28;20258;-83
2021/01/04 06:40:57;;;;;;;109.17;64.13;;;;;;;;;;5074321;28;20254;-82
2021/01/04 06:43:35;;;;;;;105.87;57.50;;;;;;;;;;5074059;28;20571;-82
2021/01/04 06:46:19;;;;;;;103.17;53.70;;;;;;;;;;5072166;28;20564;-82
2021/01/04 06:48:47;;;;;;;101.40;52.73;;;;;;;;;;5072584;28;20228;-82
2021/01/04 06:51:35;;;;;;;138.97;66.43;;;;;;;;;;5073960;28;20172;-82
2021/01/04 06:54:13;;;;;;;127.47;67.13;;;;;;;;;;5035753;28;20187;-83
2021/01/04 06:56:47;;;;;;;122.37;65.30;;;;;;;;;;5074005;28;20250;-83
2021/01/04 06:59:28;;;;;;;128.77;64.03;;;;;;;;;;5074627;28;20181;-83
2021/01/04 07:02:12;;;;;;;108.73;57.17;;;;;;;;;;5073426;28;20204;-82
2021/01/04 07:04:56;;;;;;;117.77;60.57;;;;;;;;;;5073404;28;20287;-82
2021/01/04 07:07:24;;;;;;;120.33;62.03;;;;;;;;;;5073760;28;20193;-82
2021/01/04 07:09:50;;;;;;;115.93;58.63;;;;;;;;;;5073601;28;20171;-82
2021/01/04 07:12:23;;;;;;;109.63;56.80;;;;;;;;;;5075403;28;20617;-83
2021/01/04 07:14:48;;;;;;;108.50;57.70;;;;;;;;;;5071870;28;20233;-82
2021/01/04 07:17:19;;;;;;;101.27;53.30;;;;;;;;;;5076233;28;20228;-82
2021/01/04 07:19:50;;;;;;;95.43;51.00;;;;;;;;;;5083703;28;20197;-82
2021/01/04 07:22:24;;;;;;;92.67;51.57;;;;;;;;;;5082769;28;20179;-82
2021/01/04 07:24:56;;;;;;;95.00;51.00;;;;;;;;;;5082386;28;20294;-82
2021/01/04 07:27:45;;;;;;;103.83;58.53;;;;;;;;;;5087393;28;20162;-82
2021/01/04 07:30:29;;;;;;;110.50;61.97;;;;;;;;;;5086124;28;20180;-82
2021/01/04 07:33:01;;;;;;;121.30;61.23;;;;;;;;;;5086673;28;20656;-82
2021/01/04 07:35:30;;;;;;;70.97;41.57;;;;;;;;;;5086041;28;20178;-82
2021/01/04 07:38:07;;;;;;;126.30;64.23;;;;;;;;;;5086836;28;20167;-82
2021/01/04 07:40:49;;;;;;;89.37;49.87;;;;;;;;;;5095408;28;20577;-82
2021/01/04 07:43:14;;;;;;;61.17;35.27;;;;;;;;;;5097462;28;20174;-82
2021/01/04 07:45:51;;;;;;;54.00;32.40;;;;;;;;;;5097110;28;20204;-82
2021/01/04 07:48:42;;;;;;;61.27;35.90;;;;;;;;;;5097430;28;20621;-82
2021/01/04 07:51:14;;;;;;;51.30;30.50;;;;;;;;;;5092082;28;20183;-82
2021/01/04 07:53:57;;;;;;;64.77;35.77;;;;;;;;;;5097549;28;20167;-82
2021/01/04 07:56:41;;;;;;;74.43;39.87;;;;;;;;;;5096995;28;20269;-82
2021/01/04 07:59:22;;;;;;;72.17;40.73;;;;;;;;;;5097852;28;20190;-82
2021/01/04 08:01:50;;;;;;;79.30;43.70;;;;;;;;;;5097069;28;20265;-82
2021/01/04 08:04:21;;;;;;;59.07;35.17;;;;;;;;;;5096536;28;20301;-82
2021/01/04 08:06:49;;;;;;;59.03;33.93;;;;;;;;;;5097110;28;20178;-82
2021/01/04 08:09:22;;;;;;;55.33;33.73;;;;;;;;;;5096713;28;20515;-81
2021/01/04 08:11:57;;;;;;;57.60;35.07;;;;;;;;;;5096960;28;20649;-82
2021/01/04 08:14:25;;;;;;;66.50;37.53;;;;;;;;;;5097752;28;20203;-82
2021/01/04 08:16:52;;;;;;;73.63;42.13;;;;;;;;;;5096914;28;20166;-81
2021/01/04 08:19:18;;;;;;;65.30;36.57;;;;;;;;;;5094862;28;20656;-82
2021/01/04 08:21:49;;;;;;;102.63;51.20;;;;;;;;;;5091157;28;20201;-83
2021/01/04 08:24:21;;;;;;;75.03;39.97;;;;;;;;;;5093211;28;20202;-81
2021/01/04 08:27:05;;;;;;;59.40;33.93;;;;;;;;;;5093719;28;20253;-81
2021/01/04 08:29:42;;;;;;;49.60;29.80;;;;;;;;;;5095930;28;20176;-82
2021/01/04 08:32:13;;;;;;;47.17;26.83;;;;;;;;;;5096501;28;20502;-82
2021/01/04 08:34:40;;;;;;;44.00;24.57;;;;;;;;;;5096243;28;20181;-81
2021/01/04 08:37:05;;;;;;;48.40;28.50;;;;;;;;;;5094636;28;20186;-81
2021/01/04 08:39:36;;;;;;;68.13;36.13;;;;;;;;;;5096241;28;20163;-82
2021/01/04 08:42:04;;;;;;;60.40;34.03;;;;;;;;;;5096113;28;20685;-82
2021/01/04 08:44:34;;;;;;;62.73;33.33;;;;;;;;;;5096322;28;20645;-82
2021/01/04 08:47:08;;;;;;;64.43;34.90;;;;;;;;;;5094833;28;20179;-82
2021/01/04 08:49:41;;;;;;;62.47;34.57;;;;;;;;;;5094744;28;20178;-82
2021/01/04 08:52:13;;;;;;;64.77;39.87;;;;;;;;;;5095953;28;20173;-82
2021/01/04 08:54:39;;;;;;;68.60;32.03;;;;;;;;;;5095351;28;20220;-82
2021/01/04 08:57:07;;;;;;;51.43;29.87;;;;;;;;;;5095892;28;20178;-82
2021/01/04 08:59:33;;;;;;;43.30;24.17;;;;;;;;;;5096565;28;20205;-82
2021/01/04 09:02:00;;;;;;;43.27;26.37;;;;;;;;;;5095985;28;20224;-82
2021/01/04 09:04:27;;;;;;;46.17;27.17;;;;;;;;;;5094822;28;20238;-82
2021/01/04 09:07:02;;;;;;;47.00;27.37;;;;;;;;;;5096032;28;20197;-81
2021/01/04 09:09:31;;;;;;;50.43;28.97;;;;;;;;;;5095696;28;20242;-82
2021/01/04 09:12:00;;;;;;;62.50;38.20;;;;;;;;;;5095913;28;20190;-82
2021/01/04 09:14:37;;;;;;;59.77;30.23;;;;;;;;;;5095760;28;20175;-82
2021/01/04 09:17:13;;;;;;;75.10;38.50;;;;;;;;;;5094414;28;20200;-82
2021/01/04 09:19:39;;;;;;;49.10;25.33;;;;;;;;;;5094161;28;20823;-81
2021/01/04 09:22:09;;;;;;;69.43;33.40;;;;;;;;;;5094312;28;20620;-82
2021/01/04 09:24:36;;;;;;;56.70;27.50;;;;;;;;;;5094622;28;20218;-82
2021/01/04 09:27:05;;;;;;;58.03;27.03;;;;;;;;;;5095188;28;20206;-81
2021/01/04 09:29:44;;;;;;;61.20;29.03;;;;;;;;;;5095878;28;20605;-82
2021/01/04 09:32:11;;;;;;;73.23;34.10;;;;;;;;;;5095494;28;20208;-82
2021/01/04 09:34:36;;;;;;;55.13;31.20;;;;;;;;;;5095125;28;20175;-81
2021/01/04 09:37:10;;;;;;;70.43;32.30;;;;;;;;;;5077146;28;20270;-82
2021/01/04 09:39:37;;;;;;;46.63;25.40;;;;;;;;;;5095196;28;20228;-82
2021/01/04 09:42:04;;;;;;;89.17;44.50;;;;;;;;;;5095226;28;20174;-82
2021/01/04 09:44:29;;;;;;;74.97;37.77;;;;;;;;;;5095053;28;20202;-82
2021/01/04 09:47:07;;;;;;;69.97;34.13;;;;;;;;;;5090215;28;20179;-82
2021/01/04 09:49:38;;;;;;;70.90;39.23;;;;;;;;;;5094515;28;20178;-82
2021/01/04 09:52:22;;;;;;;58.70;30.13;;;;;;;;;;5095009;28;20167;-82
2021/01/04 09:54:49;;;;;;;54.80;26.83;;;;;;;;;;5084416;28;20659;-82
2021/01/04 09:57:19;;;;;;;54.53;29.93;;;;;;;;;;5091221;28;20182;-82
2021/01/04 09:59:44;;;;;;;59.53;31.73;;;;;;;;;;5073511;28;20526;-82
2021/01/04 10:02:21;;;;;;;66.57;35.00;;;;;;;;;;5079223;28;20167;-82
2021/01/04 10:04:46;;;;;;;63.90;34.87;;;;;;;;;;5075512;28;20238;-82
2021/01/04 10:07:17;;;;;;;71.63;41.70;;;;;;;;;;5093767;28;20181;-82
2021/01/04 10:09:44;;;;;;;75.30;41.77;;;;;;;;;;5093498;28;20254;-82
2021/01/04 10:12:09;;;;;;;56.23;33.57;;;;;;;;;;5075711;28;20254;-81
2021/01/04 10:14:35;;;;;;;72.67;41.70;;;;;;;;;;5073227;28;20179;-82
2021/01/04 10:17:01;;;;;;;69.77;35.40;;;;;;;;;;5073676;28;20164;-81
2021/01/04 10:19:45;;;;;;;65.17;33.27;;;;;;;;;;5073381;28;20206;-82
2021/01/04 10:22:15;;;;;;;57.10;31.57;;;;;;;;;;5072982;28;20174;-82
2021/01/04 10:24:41;;;;;;;57.47;30.83;;;;;;;;;;5073241;28;20194;-82
2021/01/04 10:27:06;;;;;;;65.37;34.50;;;;;;;;;;5073290;28;20633;-82
2021/01/04 10:29:32;;;;;;;55.87;29.30;;;;;;;;;;5091256;28;20204;-82
2021/01/04 10:32:05;;;;;;;55.07;29.90;;;;;;;;;;5092725;28;20200;-82
2021/01/04 10:34:38;;;;;;;54.47;31.27;;;;;;;;;;5093139;28;20166;-82
2021/01/04 10:37:04;;;;;;;63.90;33.77;;;;;;;;;;5093370;28;20590;-82
2021/01/04 10:39:35;;;;;;;93.53;49.70;;;;;;;;;;5093047;28;20170;-82
2021/01/04 10:42:08;;;;;;;70.87;39.40;;;;;;;;;;5093225;28;20255;-82
2021/01/04 10:44:34;;;;;;;150.07;76.47;;;;;;;;;;5093170;28;20586;-81
2021/01/04 10:47:07;;;;;;;82.10;46.47;;;;;;;;;;5092961;28;20173;-82
2021/01/04 10:49:35;;;;;;;82.70;46.20;;;;;;;;;;5092861;28;20170;-82
2021/01/04 10:52:02;;;;;;;67.07;37.40;;;;;;;;;;5074855;28;20181;-82
2021/01/04 10:54:38;;;;;;;58.10;33.87;;;;;;;;;;5093050;28;20185;-82
2021/01/04 10:57:03;;;;;;;55.97;34.40;;;;;;;;;;5090729;28;20236;-82
2021/01/04 10:59:31;;;;;;;81.53;44.73;;;;;;;;;;5072560;28;20197;-82
2021/01/04 11:01:57;;;;;;;74.07;41.63;;;;;;;;;;5079049;28;20177;-82
2021/01/04 11:04:23;;;;;;;77.57;40.73;;;;;;;;;;5092614;28;20242;-82
2021/01/04 11:07:00;;;;;;;56.57;33.50;;;;;;;;;;5092649;28;20174;-82
2021/01/04 11:09:27;;;;;;;53.67;29.63;;;;;;;;;;5092882;28;20185;-81
2021/01/04 11:12:13;;;;;;;50.07;28.83;;;;;;;;;;5092522;28;20564;-82
2021/01/04 11:14:39;;;;;;;46.93;30.43;;;;;;;;;;5062364;28;20182;-82
2021/01/04 11:17:31;;;;;;;54.83;31.50;;;;;;;;;;5093031;28;20200;-83
2021/01/04 11:20:05;;;;;;;47.03;28.73;;;;;;;;;;5084404;28;20637;-83
2021/01/04 11:22:30;;;;;;;48.37;28.53;;;;;;;;;;5092794;28;20174;-83
2021/01/04 11:24:56;;;;;;;54.50;32.50;;;;;;;;;;5092755;28;20697;-83
2021/01/04 11:27:22;;;;;;;49.97;27.53;;;;;;;;;;5092821;28;20193;-83
2021/01/04 11:29:48;;;;;;;43.83;27.83;;;;;;;;;;5092610;28;20178;-83
2021/01/04 11:32:14;;;;;;;46.23;28.60;;;;;;;;;;5092733;28;20185;-83
2021/01/04 11:34:43;;;;;;;43.90;28.07;;;;;;;;;;5092370;28;20258;-82
2021/01/04 11:37:08;;;;;;;50.23;29.77;;;;;;;;;;5092685;28;20520;-82
2021/01/04 11:39:35;;;;;;;56.47;29.93;;;;;;;;;;5092788;28;20178;-83
2021/01/04 11:42:00;;;;;;;72.73;43.93;;;;;;;;;;5092341;28;20171;-83
2021/01/04 11:44:27;;;;;;;77.27;45.17;;;;;;;;;;5092100;28;20198;-83
2021/01/04 11:46:53;;;;;;;60.57;34.87;;;;;;;;;;5092593;28;20183;-83
2021/01/04 11:49:18;;;;;;;60.57;34.77;;;;;;;;;;5092089;28;20177;-83
2021/01/04 11:51:43;;;;;;;58.53;35.13;;;;;;;;;;5092320;28;20171;-83
2021/01/04 11:54:09;;;;;;;58.43;35.37;;;;;;;;;;5092569;28;20531;-82
2021/01/04 11:56:34;;;;;;;59.97;32.80;;;;;;;;;;5092836;28;20262;-82
2021/01/04 11:58:59;;;;;;;66.80;39.67;;;;;;;;;;5091299;28;20187;-83
2021/01/04 12:01:25;;;;;;;74.20;41.73;;;;;;;;;;5090659;28;20262;-82
2021/01/04 12:03:51;;;;;;;53.13;31.03;;;;;;;;;;5077197;28;20174;-83
2021/01/04 12:06:17;;;;;;;51.17;32.60;;;;;;;;;;5091394;28;20210;-82
2021/01/04 12:08:43;;;;;;;58.67;34.40;;;;;;;;;;5092312;28;20505;-82
2021/01/04 12:11:09;;;;;;;51.07;31.33;;;;;;;;;;5091282;28;20177;-83
2021/01/04 12:13:34;;;;;;;54.73;36.20;;;;;;;;;;5075793;28;20241;-83
2021/01/04 12:15:59;;;;;;;47.70;26.80;;;;;;;;;;5074997;28;20224;-82
2021/01/04 12:18:25;;;;;;;58.00;35.03;;;;;;;;;;5080754;28;20162;-82
2021/01/04 12:20:50;;;;;;;55.07;34.20;;;;;;;;;;5095590;28;20171;-83
2021/01/04 12:23:15;;;;;;;56.27;34.97;;;;;;;;;;5095526;28;20163;-82
2021/01/04 12:25:41;;;;;;;53.83;32.87;;;;;;;;;;5094444;28;20198;-83
2021/01/04 12:28:08;;;;;;;58.00;33.23;;;;;;;;;;5095295;28;20163;-82
2021/01/04 12:30:33;;;;;;;53.80;34.00;;;;;;;;;;5095514;28;20178;-83
2021/01/04 12:33:00;;;;;;;55.40;34.53;;;;;;;;;;5095756;28;20174;-82
2021/01/04 12:35:25;;;;;;;50.37;30.40;;;;;;;;;;5095437;28;20532;-82
2021/01/04 12:37:50;;;;;;;54.40;33.00;;;;;;;;;;5095321;28;20170;-83
2021/01/04 12:40:18;;;;;;;55.83;35.57;;;;;;;;;;5095922;28;20170;-82
2021/01/04 12:42:45;;;;;;;58.90;35.57;;;;;;;;;;5095402;28;20171;-83
2021/01/04 12:45:11;;;;;;;58.70;36.73;;;;;;;;;;5093626;28;20194;-83
2021/01/04 12:47:36;;;;;;;61.50;36.40;;;;;;;;;;5093834;28;20236;-82
2021/01/04 12:50:01;;;;;;;119.47;56.67;;;;;;;;;;5094219;28;20197;-82
2021/01/04 12:52:27;;;;;;;145.73;68.33;;;;;;;;;;5093714;28;20170;-83
2021/01/04 12:54:52;;;;;;;142.10;71.93;;;;;;;;;;5094089;28;20225;-81
2021/01/04 12:57:18;;;;;;;140.27;77.33;;;;;;;;;;5093639;28;20588;-82
2021/01/04 12:59:44;;;;;;;130.17;65.83;;;;;;;;;;5093827;28;20188;-83
2021/01/04 13:02:09;;;;;;;88.43;49.63;;;;;;;;;;5080069;28;20262;-81
2021/01/04 13:04:39;;;;;;;83.77;45.70;;;;;;;;;;5073074;28;20338;-81
2021/01/04 13:07:04;;;;;;;86.13;44.60;;;;;;;;;;5074092;28;20228;-81
2021/01/04 13:09:29;;;;;;;81.47;45.50;;;;;;;;;;5073107;28;20172;-82
2021/01/04 13:11:55;;;;;;;69.47;37.67;;;;;;;;;;5072817;28;20685;-82
2021/01/04 13:14:21;;;;;;;94.10;49.97;;;;;;;;;;5072408;28;20171;-81
2021/01/04 13:16:46;;;;;;;88.27;48.77;;;;;;;;;;5072811;28;20183;-81
2021/01/04 13:19:12;;;;;;;84.37;45.90;;;;;;;;;;5072718;28;20795;-81
2021/01/04 13:21:38;;;;;;;70.63;38.33;;;;;;;;;;5072204;28;20651;-82
2021/01/04 13:24:04;;;;;;;70.10;40.47;;;;;;;;;;5073205;28;20167;-82
2021/01/04 13:26:29;;;;;;;78.67;43.37;;;;;;;;;;5092405;28;20197;-82
2021/01/04 13:28:55;;;;;;;71.83;38.60;;;;;;;;;;5074687;28;20175;-82
2021/01/04 13:31:26;;;;;;;75.17;39.27;;;;;;;;;;5092461;28;20614;-81
2021/01/04 13:33:51;;;;;;;76.70;42.23;;;;;;;;;;5092083;28;20224;-82
2021/01/04 13:36:17;;;;;;;81.70;44.67;;;;;;;;;;5092606;28;20257;-82
2021/01/04 13:38:42;;;;;;;86.80;44.70;;;;;;;;;;5092354;28;20527;-82
2021/01/04 13:41:08;;;;;;;75.00;42.20;;;;;;;;;;5092226;28;20169;-82
2021/01/04 13:43:33;;;;;;;79.20;42.23;;;;;;;;;;5092232;28;20194;-81
2021/01/04 13:45:58;;;;;;;71.03;39.13;;;;;;;;;;5074121;28;20598;-82
2021/01/04 13:48:23;;;;;;;74.53;41.07;;;;;;;;;;5091766;28;20720;-81
2021/01/04 13:50:49;;;;;;;78.43;37.90;;;;;;;;;;5091739;28;20174;-82
2021/01/04 13:53:14;;;;;;;101.13;55.70;;;;;;;;;;5092177;28;20223;-82
2021/01/04 13:55:39;;;;;;;75.60;39.60;;;;;;;;;;5092032;28;20174;-82
2021/01/04 13:58:05;;;;;;;78.17;41.40;;;;;;;;;;5091695;28;20167;-81
2021/01/04 14:00:30;;;;;;;72.90;40.60;;;;;;;;;;5073026;28;20178;-82
2021/01/04 14:02:56;;;;;;;74.90;40.03;;;;;;;;;;5072787;28;20182;-81
2021/01/04 14:05:21;;;;;;;82.63;45.30;;;;;;;;;;5091729;28;20234;-82
2021/01/04 14:07:47;;;;;;;86.73;47.63;;;;;;;;;;5092582;28;20174;-81
2021/01/04 14:10:12;;;;;;;91.37;49.40;;;;;;;;;;5093115;28;20632;-81
2021/01/04 14:12:37;;;;;;;95.33;52.70;;;;;;;;;;5091538;28;20289;-81
2021/01/04 14:15:04;;;;;;;91.73;51.53;;;;;;;;;;5093179;28;20201;-81
2021/01/04 14:17:29;;;;;;;101.07;52.70;;;;;;;;;;5091411;28;20225;-81
2021/01/04 14:19:55;;;;;;;110.07;55.80;;;;;;;;;;5084820;28;20176;-81
2021/01/04 14:22:20;;;;;;;97.63;53.77;;;;;;;;;;5071533;28;20171;-81
2021/01/04 14:24:46;;;;;;;102.33;56.23;;;;;;;;;;5072841;28;20275;-81
2021/01/04 14:27:12;;;;;;;92.97;50.33;;;;;;;;;;5073250;28;20243;-81
2021/01/04 14:29:39;;;;;;;80.80;44.37;;;;;;;;;;5088801;28;20566;-81
2021/01/04 14:32:05;;;;;;;101.37;50.63;;;;;;;;;;5091827;28;20170;-81